Time;durP1;ratioP1;P1;durP2;ratioP2;P2;SDS_P1;SDS_P2;PMS_P1;PMS_P2;Temp;Humidity;BMP_temperature;BMP_pressure;BME280_temperature;BME280_humidity;BME280_pressure;Samples;Min_cycle;Max_cycle;Signal;HPM_P1;HPM_P2
2023/12/07 00:01:51;;;;;;;69.00;19.25;;;;;;;;;;4978891;28;20572;-77
2023/12/07 00:04:19;;;;;;;82.60;21.27;;;;;;;;;;4964377;28;20129;-76
2023/12/07 00:06:48;;;;;;;65.97;17.38;;;;;;;;;;4940642;28;20122;-76
2023/12/07 00:09:16;;;;;;;72.70;22.30;;;;;;;;;;4947695;28;20043;-75
2023/12/07 00:11:44;;;;;;;66.93;18.58;;;;;;;;;;4938183;28;20435;-75
2023/12/07 00:14:13;;;;;;;66.47;19.80;;;;;;;;;;4945011;28;20052;-76
2023/12/07 00:16:41;;;;;;;68.43;19.08;;;;;;;;;;4927593;28;20130;-76
2023/12/07 00:19:09;;;;;;;71.00;20.63;;;;;;;;;;4964279;28;20080;-76
2023/12/07 00:21:37;;;;;;;68.32;18.48;;;;;;;;;;4997635;28;20054;-76
2023/12/07 00:24:07;;;;;;;72.13;18.95;;;-10.00;85.40;;;;;;4954023;28;20052;-76
2023/12/07 00:26:35;;;;;;;78.43;20.58;;;-10.00;86.40;;;;;;4985007;28;20056;-75
2023/12/07 00:29:03;;;;;;;75.78;20.30;;;-10.00;85.90;;;;;;4993629;28;20067;-77
2023/12/07 00:36:53;;;;;;;85.28;22.98;;;-10.00;81.30;;;;;;5100216;27;1431535;-77
2023/12/07 00:39:20;;;;;;;80.20;20.30;;;-10.40;81.40;;;;;;5124724;27;20092;-76
2023/12/07 00:41:48;;;;;;;86.57;20.17;;;-10.40;81.40;;;;;;5093656;28;20150;-77
2023/12/07 00:44:16;;;;;;;70.07;19.90;;;-10.40;81.40;;;;;;5111859;28;20100;-77
2023/12/07 00:46:44;;;;;;;71.10;17.15;;;-10.40;81.40;;;;;;5128616;27;20044;-77
2023/12/07 00:49:12;;;;;;;60.67;17.80;;;-10.40;81.20;;;;;;5111514;27;20058;-78
2023/12/07 00:51:39;;;;;;;64.07;16.30;;;-10.70;81.00;;;;;;5115400;27;20387;-76
2023/12/07 00:54:08;;;;;;;60.53;15.50;;;-10.60;81.80;;;;;;5109736;28;20047;-76
2023/12/07 00:56:37;;;;;;;57.05;18.02;;;-10.60;80.90;;;;;;5093828;28;20556;-78
2023/12/07 00:59:04;;;;;;;53.20;13.60;;;-10.60;81.10;;;;;;5109982;27;20048;-77
2023/12/07 01:01:32;;;;;;;64.95;15.88;;;-10.80;80.50;;;;;;5129300;27;20047;-77
2023/12/07 01:04:00;;;;;;;44.75;13.43;;;-10.80;80.30;;;;;;5110272;28;20101;-77
2023/12/07 01:06:28;;;;;;;36.15;8.95;;;-10.80;81.50;;;;;;5130844;27;20097;-78
2023/12/07 01:08:55;;;;;;;54.63;15.20;;;-10.80;80.00;;;;;;5102406;28;20054;-75
2023/12/07 01:11:24;;;;;;;40.55;13.10;;;-11.00;79.90;;;;;;5128709;27;20054;-77
2023/12/07 01:13:52;;;;;;;46.33;12.40;;;-11.10;79.80;;;;;;5125078;27;20048;-80
2023/12/07 01:16:20;;;;;;;45.90;13.15;;;-11.10;79.90;;;;;;5110599;28;20074;-80
2023/12/07 01:18:48;;;;;;;45.95;13.93;;;-11.10;79.90;;;;;;5093928;28;20062;-78
2023/12/07 01:21:16;;;;;;;32.40;10.40;;;-11.20;77.90;;;;;;5110074;27;20079;-79
2023/12/07 01:23:43;;;;;;;46.92;12.52;;;-11.20;77.50;;;;;;5130641;27;20052;-80
2023/12/07 01:26:11;;;;;;;37.97;13.30;;;-11.30;76.80;;;;;;5109913;27;20043;-78
2023/12/07 01:28:40;;;;;;;40.22;11.63;;;-11.40;76.80;;;;;;5110704;28;20039;-78
2023/12/07 01:31:08;;;;;;;50.25;11.98;;;-11.50;76.40;;;;;;5128394;27;20048;-80
2023/12/07 01:33:35;;;;;;;46.20;13.68;;;-11.60;76.20;;;;;;5110218;28;20279;-80
2023/12/07 01:36:03;;;;;;;44.90;14.68;;;-11.60;76.50;;;;;;5128461;27;20051;-82
2023/12/07 01:38:31;;;;;;;41.80;14.57;;;-11.60;76.50;;;;;;5109294;27;20417;-81
2023/12/07 01:40:59;;;;;;;51.90;15.30;;;-11.70;76.70;;;;;;5111091;28;20148;-79
2023/12/07 01:43:26;;;;;;;38.47;11.73;;;-11.70;76.70;;;;;;5111293;28;20095;-79
2023/12/07 01:45:58;;;;;;;44.92;13.55;;;-11.70;76.50;;;;;;5093826;28;20040;-79
2023/12/07 01:48:28;;;;;;;43.33;13.40;;;-11.80;76.80;;;;;;5114480;28;20059;-79
2023/12/07 01:50:57;;;;;;;33.75;10.88;;;-11.70;76.50;;;;;;5096883;28;20051;-79
2023/12/07 01:53:26;;;;;;;39.22;11.98;;;-11.90;76.90;;;;;;5097095;28;20055;-79
2023/12/07 01:55:54;;;;;;;41.83;13.27;;;-11.80;76.10;;;;;;5079021;28;20047;-78
2023/12/07 01:58:22;;;;;;;40.00;12.07;;;-11.90;76.20;;;;;;5116421;27;20104;-79
2023/12/07 02:00:51;;;;;;;36.38;12.38;;;-11.90;76.20;;;;;;5113355;28;20077;-79
2023/12/07 02:03:21;;;;;;;32.17;10.23;;;-11.90;76.10;;;;;;5096442;28;20594;-79
2023/12/07 02:05:49;;;;;;;32.85;10.32;;;-12.00;76.20;;;;;;5095084;28;20047;-78
2023/12/07 02:08:17;;;;;;;36.22;14.18;;;-11.90;76.00;;;;;;5114899;27;20040;-80
2023/12/07 02:10:46;;;;;;;32.75;10.00;;;-12.00;75.50;;;;;;5078981;28;20126;-79
2023/12/07 02:13:14;;;;;;;35.75;11.30;;;-12.10;75.50;;;;;;5095528;28;20150;-82
2023/12/07 02:15:41;;;;;;;41.88;11.95;;;-12.20;75.20;;;;;;5079824;28;20415;-80
2023/12/07 02:18:17;;;;;;;33.42;12.30;;;-12.30;75.20;;;;;;5095494;28;20040;-79
2023/12/07 02:21:17;;;;;;;35.00;10.02;;;-12.30;75.60;;;;;;5098084;28;20048;-79
2023/12/07 02:23:48;;;;;;;34.20;12.75;;;-12.30;75.90;;;;;;5113144;28;20051;-78
2023/12/07 02:26:35;;;;;;;29.60;9.98;;;-12.30;76.20;;;;;;5114321;28;20055;-79
2023/12/07 02:29:03;;;;;;;34.53;9.70;;;-12.30;76.50;;;;;;5077339;28;20093;-75
2023/12/07 02:31:31;;;;;;;28.77;10.68;;;-12.30;77.60;;;;;;5114317;27;20047;-77
2023/12/07 02:33:59;;;;;;;25.55;9.52;;;-12.30;77.00;;;;;;5111948;28;20134;-77
2023/12/07 02:36:29;;;;;;;24.27;8.68;;;-12.30;76.90;;;;;;5077281;28;20048;-75
2023/12/07 02:39:01;;;;;;;35.17;10.55;;;-12.40;77.10;;;;;;5079106;27;20054;-78
2023/12/07 02:41:33;;;;;;;28.08;9.13;;;-12.40;77.20;;;;;;5093694;28;20035;-78
2023/12/07 02:44:02;;;;;;;18.33;7.05;;;-12.50;77.60;;;;;;5074640;28;20048;-76
2023/12/07 02:46:30;;;;;;;24.63;9.27;;;-12.40;77.90;;;;;;5103424;28;20069;-78
2023/12/07 02:48:59;;;;;;;23.35;8.82;;;-12.50;78.00;;;;;;5094763;28;20461;-75
2023/12/07 02:51:26;;;;;;;29.27;9.88;;;-12.40;78.70;;;;;;5094432;28;20540;-75
2023/12/07 02:53:54;;;;;;;24.70;7.93;;;-12.50;79.00;;;;;;5109971;28;20413;-76
2023/12/07 02:56:21;;;;;;;22.98;9.55;;;-12.50;79.80;;;;;;5074706;28;20058;-78
2023/12/07 02:58:50;;;;;;;20.67;7.95;;;-12.50;81.00;;;;;;5093564;28;20058;-77
2023/12/07 03:01:18;;;;;;;31.40;9.80;;;;;;;;;;5073444;27;20169;-77
2023/12/07 03:03:46;;;;;;;31.20;9.30;;;;;;;;;;5112225;28;20530;-76
2023/12/07 03:06:16;;;;;;;29.92;9.88;;;;;;;;;;5120530;27;20059;-77
2023/12/07 03:08:44;;;;;;;33.22;9.63;;;;;;;;;;5076411;28;20063;-76
2023/12/07 03:11:11;;;;;;;26.88;8.13;;;;;;;;;;5068518;28;20454;-79
2023/12/07 03:13:39;;;;;;;25.55;8.82;;;;;;;;;;5112439;28;20482;-79
2023/12/07 03:16:11;;;;;;;21.00;8.55;;;;;;;;;;5111811;28;20571;-80
2023/12/07 03:18:39;;;;;;;21.38;8.52;;;;;;;;;;5104545;27;20093;-79
2023/12/07 03:21:07;;;;;;;23.48;8.25;;;;;;;;;;5093515;28;20047;-78
2023/12/07 03:23:35;;;;;;;20.77;7.85;;;;;;;;;;5079090;28;20052;-81
2023/12/07 03:26:03;;;;;;;25.70;8.35;;;;;;;;;;5094096;28;20048;-81
2023/12/07 03:28:30;;;;;;;22.25;7.68;;;;;;;;;;5092133;28;20071;-78
2023/12/07 03:30:58;;;;;;;21.08;8.95;;;;;;;;;;5091462;27;20051;-77
2023/12/07 03:33:28;;;;;;;24.02;8.45;;;;;;;;;;5094306;28;20786;-80
2023/12/07 03:35:56;;;;;;;27.90;7.70;;;;;;;;;;5093922;28;20077;-79
2023/12/07 03:38:24;;;;;;;22.45;8.10;;;;;;;;;;5094036;28;20045;-78
2023/12/07 03:40:52;;;;;;;21.27;7.93;;;;;;;;;;5111540;27;20047;-79
2023/12/07 03:43:21;;;;;;;21.92;6.88;;;-13.10;78.30;;;;;;5092879;28;20070;-81
2023/12/07 03:45:49;;;;;;;34.38;11.02;;;-13.10;79.40;;;;;;5075806;28;20051;-80
2023/12/07 03:48:17;;;;;;;28.30;9.70;;;-13.10;79.10;;;;;;5092205;28;20040;-79
2023/12/07 03:50:46;;;;;;;23.55;8.73;;;-13.10;81.40;;;;;;5092163;28;20047;-78
2023/12/07 03:53:14;;;;;;;22.23;6.47;;;-13.00;76.60;;;;;;5074408;28;20153;-79
2023/12/07 03:55:42;;;;;;;25.08;7.93;;;-13.10;71.60;;;;;;5111676;27;20491;-79
2023/12/07 03:58:09;;;;;;;21.27;7.93;;;-13.20;70.30;;;;;;5087210;28;20040;-78
2023/12/07 04:00:37;;;;;;;22.98;7.50;;;-13.20;71.90;;;;;;5109348;27;20079;-78
2023/12/07 04:03:05;;;;;;;22.25;7.55;;;-13.30;69.00;;;;;;5109534;27;20063;-78
2023/12/07 04:05:34;;;;;;;23.88;7.60;;;;;;;;;;5091290;28;20070;-77
2023/12/07 04:08:05;;;;;;;23.20;5.90;;;-13.30;63.20;;;;;;5091794;28;20634;-77
2023/12/07 04:10:32;;;;;;;22.85;6.18;;;-13.40;63.80;;;;;;5082454;28;20139;-78
2023/12/07 04:13:00;;;;;;;25.35;8.23;;;-13.40;63.80;;;;;;5109706;28;20410;-79
2023/12/07 04:15:28;;;;;;;21.38;7.07;;;-13.40;63.90;;;;;;5116773;27;20503;-79
2023/12/07 04:17:55;;;;;;;21.42;6.57;;;-13.40;63.90;;;;;;5089843;28;20218;-80
2023/12/07 04:20:23;;;;;;;22.83;6.93;;;-13.40;63.70;;;;;;5110259;28;20507;-76
2023/12/07 04:22:53;;;;;;;17.77;7.53;;;-13.50;63.70;;;;;;5090848;28;20055;-75
2023/12/07 04:25:23;;;;;;;18.65;6.32;;;-13.50;63.70;;;;;;5090569;28;20086;-76
2023/12/07 04:27:51;;;;;;;23.83;6.63;;;-13.60;63.70;;;;;;5110011;28;20055;-75
2023/12/07 04:30:19;;;;;;;17.02;6.47;;;-13.60;63.80;;;;;;5071431;28;20134;-77
2023/12/07 04:32:46;;;;;;;17.52;7.25;;;-13.70;64.00;;;;;;5074344;28;20052;-76
2023/12/07 04:35:14;;;;;;;18.10;6.13;;;-13.60;64.10;;;;;;5096493;28;20138;-75
2023/12/07 04:37:42;;;;;;;17.60;8.18;;;-13.60;64.10;;;;;;5088892;28;20452;-75
2023/12/07 04:40:12;;;;;;;12.45;5.22;;;-13.60;63.90;;;;;;5090390;28;20051;-76
2023/12/07 04:42:42;;;;;;;15.13;5.93;;;-13.60;63.80;;;;;;5106843;28;20091;-75
2023/12/07 04:45:10;;;;;;;16.88;6.90;;;-13.60;63.90;;;;;;5110435;28;20411;-75
2023/12/07 04:47:38;;;;;;;20.92;8.30;;;-13.60;63.80;;;;;;5115735;28;20075;-76
2023/12/07 04:50:07;;;;;;;12.48;5.00;;;-13.60;63.50;;;;;;5077799;28;20101;-76
2023/12/07 04:52:35;;;;;;;24.27;7.28;;;-13.60;63.30;;;;;;5072809;28;20143;-76
2023/12/07 04:55:02;;;;;;;25.02;7.40;;;-13.70;63.20;;;;;;5056873;28;20068;-77
2023/12/07 04:57:31;;;;;;;15.45;6.47;;;-13.70;63.20;;;;;;5090037;28;20412;-79
2023/12/07 05:00:06;;;;;;;17.67;6.63;;;-13.80;63.20;;;;;;5073240;28;20578;-77
2023/12/07 05:02:34;;;;;;;14.18;5.22;;;-13.80;63.70;;;;;;5094261;28;20089;-80
2023/12/07 05:05:02;;;;;;;17.13;6.30;;;-13.80;63.40;;;;;;5077154;28;20055;-80
2023/12/07 05:07:33;;;;;;;24.20;8.23;;;-13.80;63.50;;;;;;5099726;28;20127;-80
2023/12/07 05:10:12;;;;;;;20.05;6.88;;;-13.80;63.70;;;;;;5106282;28;20044;-81
2023/12/07 05:12:59;;;;;;;17.00;5.82;;;-13.70;63.60;;;;;;5077285;28;20138;-81
2023/12/07 05:15:33;;;;;;;19.98;6.95;;;-13.80;64.30;;;;;;5105915;28;20039;-79
2023/12/07 05:18:02;;;;;;;19.75;7.07;;;-13.80;64.20;;;;;;5088744;28;20047;-77
2023/12/07 05:20:38;;;;;;;16.73;7.32;;;-13.80;63.30;;;;;;5092416;28;20615;-79
2023/12/07 05:23:07;;;;;;;15.52;7.07;;;-13.70;63.10;;;;;;5127849;27;20066;-79
2023/12/07 05:25:36;;;;;;;19.27;7.72;;;-13.80;62.90;;;;;;5135705;27;20130;-79
2023/12/07 05:28:04;;;;;;;22.45;6.95;;;-13.70;63.00;;;;;;5116736;27;20154;-80
2023/12/07 05:30:33;;;;;;;18.98;7.80;;;-13.70;62.90;;;;;;5100080;27;20116;-79
2023/12/07 05:33:01;;;;;;;17.92;6.38;;;-13.70;63.00;;;;;;5117944;27;20050;-78
2023/12/07 05:35:29;;;;;;;27.40;7.22;;;-13.60;63.20;;;;;;5116888;27;20039;-78
2023/12/07 05:38:04;;;;;;;20.77;8.63;;;-13.60;63.70;;;;;;5117557;27;20146;-79
2023/12/07 05:40:33;;;;;;;20.70;7.05;;;-13.60;62.60;;;;;;5137489;27;20087;-80
2023/12/07 05:43:10;;;;;;;14.43;6.50;;;-13.60;62.40;;;;;;5118110;27;20043;-79
2023/12/07 05:45:42;;;;;;;20.63;6.95;;;-13.70;62.90;;;;;;5101071;27;20577;-78
2023/12/07 05:48:11;;;;;;;32.28;8.85;;;-13.70;63.10;;;;;;5079936;28;20070;-80
2023/12/07 05:50:39;;;;;;;26.20;8.50;;;-13.70;63.40;;;;;;5075660;28;20158;-78
2023/12/07 05:53:07;;;;;;;19.63;8.02;;;-13.70;63.30;;;;;;5092862;28;20056;-80
2023/12/07 05:55:37;;;;;;;28.33;8.40;;;-13.70;64.30;;;;;;5080418;28;20040;-79
2023/12/07 05:58:05;;;;;;;24.55;9.00;;;-13.60;63.50;;;;;;5109725;28;20051;-78
2023/12/07 06:00:33;;;;;;;25.30;8.82;;;-13.70;63.90;;;;;;5113245;28;20479;-79
2023/12/07 06:03:02;;;;;;;27.88;10.25;;;-13.70;64.10;;;;;;5114718;28;20505;-79
2023/12/07 06:05:31;;;;;;;26.00;8.30;;;-13.60;64.30;;;;;;5078609;28;20514;-80
2023/12/07 06:07:59;;;;;;;28.85;8.73;;;-13.70;64.40;;;;;;5078496;28;20056;-79
2023/12/07 06:10:26;;;;;;;35.33;11.82;;;-13.60;64.60;;;;;;5079240;28;20051;-78
2023/12/07 06:12:55;;;;;;;29.65;9.93;;;-13.60;64.70;;;;;;5088842;28;20048;-78
2023/12/07 06:15:22;;;;;;;27.10;9.15;;;-13.60;64.60;;;;;;5096378;28;20051;-78
2023/12/07 06:17:50;;;;;;;24.50;8.10;;;-13.60;64.80;;;;;;5078694;28;20058;-79
2023/12/07 06:20:21;;;;;;;31.35;11.25;;;-13.60;64.70;;;;;;5078780;28;20048;-78
2023/12/07 06:22:49;;;;;;;27.15;8.48;;;-13.50;64.60;;;;;;5095245;28;20052;-78
2023/12/07 06:25:17;;;;;;;20.38;7.45;;;-13.50;64.60;;;;;;5113962;28;20097;-78
2023/12/07 06:27:45;;;;;;;17.73;7.72;;;-13.50;64.80;;;;;;5078555;28;20048;-78
2023/12/07 06:30:13;;;;;;;21.70;8.38;;;-13.50;64.70;;;;;;5095484;28;20089;-77
2023/12/07 06:32:41;;;;;;;33.53;9.65;;;-13.50;64.80;;;;;;5112831;28;20047;-79
2023/12/07 06:35:10;;;;;;;18.38;7.68;;;-13.50;65.00;;;;;;5094924;28;20047;-78
2023/12/07 06:37:41;;;;;;;23.25;9.52;;;-13.50;64.90;;;;;;5112400;28;20138;-78
2023/12/07 06:40:11;;;;;;;27.48;10.38;;;-13.50;65.00;;;;;;5113586;28;20073;-78
2023/12/07 06:42:39;;;;;;;27.25;10.05;;;-13.40;65.10;;;;;;5113374;28;20044;-78
2023/12/07 06:45:10;;;;;;;37.30;8.57;;;-13.40;65.00;;;;;;5112746;28;20645;-79
2023/12/07 06:47:39;;;;;;;26.77;9.45;;;-13.40;64.80;;;;;;5113674;27;20462;-78
2023/12/07 06:50:09;;;;;;;19.70;8.18;;;-13.40;64.80;;;;;;5105726;28;20039;-78
2023/12/07 06:52:39;;;;;;;20.40;9.35;;;-13.40;64.80;;;;;;5092281;28;20046;-78
2023/12/07 06:55:10;;;;;;;31.33;10.43;;;-13.50;64.90;;;;;;5101174;28;20132;-80
2023/12/07 06:57:38;;;;;;;24.50;9.73;;;-13.40;65.20;;;;;;5074011;28;20174;-78
2023/12/07 07:00:10;;;;;;;24.63;8.07;;;-13.30;65.30;;;;;;5097976;28;20500;-79
2023/12/07 07:02:38;;;;;;;21.98;9.00;;;-13.30;65.20;;;;;;5104033;28;20059;-78
2023/12/07 07:05:07;;;;;;;24.77;9.25;;;-13.30;65.20;;;;;;5106198;27;20055;-78
2023/12/07 07:07:38;;;;;;;20.70;8.07;;;-13.20;65.10;;;;;;5091621;28;20523;-79
2023/12/07 07:10:09;;;;;;;29.20;11.65;;;-13.20;65.10;;;;;;5102514;28;20045;-79
2023/12/07 07:12:37;;;;;;;22.00;9.52;;;-13.20;65.20;;;;;;5076936;28;20058;-77
2023/12/07 07:15:08;;;;;;;27.23;10.75;;;-13.10;65.20;;;;;;5070282;28;20054;-78
2023/12/07 07:17:36;;;;;;;20.45;8.77;;;-13.00;65.00;;;;;;5090180;28;20138;-77
2023/12/07 07:20:04;;;;;;;29.35;10.27;;;-13.10;64.70;;;;;;5088149;27;20050;-79
2023/12/07 07:22:32;;;;;;;24.55;9.27;;;-13.10;64.80;;;;;;5129510;27;20054;-79
2023/12/07 07:25:02;;;;;;;28.70;10.32;;;-13.00;65.10;;;;;;5112991;28;20470;-79
2023/12/07 07:27:31;;;;;;;25.02;10.98;;;-13.00;64.90;;;;;;5112263;28;20051;-77
2023/12/07 07:29:59;;;;;;;20.80;8.50;;;-12.90;64.90;;;;;;5092789;28;20048;-78
2023/12/07 07:32:27;;;;;;;19.92;10.30;;;-12.90;65.10;;;;;;5072625;28;20044;-77
2023/12/07 07:34:55;;;;;;;19.95;7.30;;;-12.80;64.90;;;;;;5073673;28;20139;-77
2023/12/07 07:37:26;;;;;;;22.52;9.23;;;-12.80;64.50;;;;;;5095688;27;20052;-77
2023/12/07 07:39:54;;;;;;;21.95;9.20;;;-12.80;64.40;;;;;;5073874;28;20123;-77
2023/12/07 07:42:23;;;;;;;24.70;9.05;;;-12.80;64.30;;;;;;5091698;28;20047;-77
2023/12/07 07:44:50;;;;;;;26.55;8.93;;;-12.80;64.40;;;;;;5093029;28;20142;-79
2023/12/07 07:47:18;;;;;;;23.15;8.50;;;-12.70;64.30;;;;;;5106867;28;20592;-78
2023/12/07 07:49:46;;;;;;;25.02;9.65;;;-12.80;64.00;;;;;;5085133;28;20043;-78
2023/12/07 07:52:13;;;;;;;19.90;8.30;;;-12.70;63.90;;;;;;5090464;28;20066;-77
2023/12/07 07:54:41;;;;;;;23.60;8.85;;;-12.70;63.80;;;;;;5097231;27;20044;-78
2023/12/07 07:57:09;;;;;;;27.98;10.95;;;-12.60;63.80;;;;;;5102134;28;20052;-78
2023/12/07 07:59:38;;;;;;;22.80;8.27;;;-12.60;63.80;;;;;;5093784;28;20036;-78
2023/12/07 08:02:06;;;;;;;33.10;10.15;;;-12.50;63.70;;;;;;5083742;28;20050;-78
2023/12/07 08:04:34;;;;;;;21.73;7.80;;;-12.60;63.70;;;;;;5078801;28;20135;-79
2023/12/07 08:07:02;;;;;;;23.75;9.00;;;-12.50;63.80;;;;;;5100909;28;20048;-78
2023/12/07 08:09:29;;;;;;;26.67;9.60;;;-12.40;63.60;;;;;;5073816;28;20075;-77
2023/12/07 08:11:57;;;;;;;20.27;7.25;;;-12.30;63.50;;;;;;5092028;28;20040;-78
2023/12/07 08:14:27;;;;;;;21.25;8.43;;;-12.30;63.30;;;;;;5091350;28;20082;-79
2023/12/07 08:16:56;;;;;;;28.17;10.40;;;-12.30;63.30;;;;;;5090460;28;20051;-80
2023/12/07 08:19:24;;;;;;;24.55;9.85;;;-12.20;63.10;;;;;;5074919;28;20056;-78
2023/12/07 08:21:52;;;;;;;23.98;9.45;;;-12.10;62.90;;;;;;5074025;28;20075;-79
2023/12/07 08:24:20;;;;;;;23.55;7.55;;;-12.10;62.40;;;;;;5102932;28;20045;-80
2023/12/07 08:26:48;;;;;;;24.92;8.70;;;-12.10;62.00;;;;;;5092951;28;20499;-79
2023/12/07 08:29:16;;;;;;;21.55;9.32;;;-12.10;61.90;;;;;;5088691;28;20039;-78
2023/12/07 08:31:44;;;;;;;18.90;8.27;;;-12.20;61.70;;;;;;5093853;28;20469;-78
2023/12/07 08:34:15;;;;;;;27.15;7.90;;;-12.20;61.60;;;;;;5076635;28;20043;-78
2023/12/07 08:36:42;;;;;;;23.88;9.00;;;-12.20;61.40;;;;;;5092579;28;20062;-79
2023/12/07 08:39:10;;;;;;;20.15;9.18;;;-12.20;61.30;;;;;;5090205;28;20083;-77
2023/12/07 08:41:38;;;;;;;30.60;10.05;;;-12.10;61.30;;;;;;5070649;28;20074;-77
2023/12/07 08:44:06;;;;;;;28.05;9.10;;;-11.90;61.40;;;;;;5065225;28;20081;-77
2023/12/07 08:46:34;;;;;;;21.33;10.48;;;-11.90;61.00;;;;;;5039399;28;20053;-76
2023/12/07 08:49:03;;;;;;;26.98;10.32;;;-11.90;61.00;;;;;;5047710;28;20060;-77
2023/12/07 08:51:32;;;;;;;34.40;9.65;;;-11.90;61.00;;;;;;5047748;28;20055;-76
2023/12/07 08:53:59;;;;;;;30.77;11.93;;;-12.00;60.90;;;;;;4972365;28;20130;-77
2023/12/07 08:56:27;;;;;;;11.60;5.78;;;-12.00;61.00;;;;;;4969002;28;20055;-77
2023/12/07 08:58:55;;;;;;;21.48;9.93;;;-12.00;60.80;;;;;;4955646;29;20109;-76
2023/12/07 09:01:22;;;;;;;21.23;9.20;;;-12.10;60.90;;;;;;4956886;28;20047;-76
2023/12/07 09:03:50;;;;;;;37.70;10.77;;;-12.00;61.00;;;;;;4971326;28;20054;-77
2023/12/07 09:06:17;;;;;;;32.42;9.82;;;-11.90;61.30;;;;;;4974176;28;20047;-76
2023/12/07 09:08:46;;;;;;;28.65;8.40;;;-11.80;61.00;;;;;;4975363;28;20117;-78
2023/12/07 09:11:16;;;;;;;18.40;8.18;;;-11.70;60.60;;;;;;4973919;28;20058;-78
2023/12/07 09:13:45;;;;;;;24.33;8.65;;;-11.60;60.60;;;;;;5005676;28;20047;-77
2023/12/07 09:16:13;;;;;;;26.50;9.13;;;-11.60;60.00;;;;;;4957964;28;20050;-78
2023/12/07 09:18:42;;;;;;;27.05;9.02;;;-11.50;60.00;;;;;;4975610;28;20125;-78
2023/12/07 09:21:10;;;;;;;23.48;8.77;;;-11.40;60.80;;;;;;4957934;28;20137;-78
2023/12/07 09:23:39;;;;;;;23.35;9.48;;;-11.30;60.00;;;;;;4975153;28;20050;-76
2023/12/07 09:26:09;;;;;;;27.88;8.77;;;-11.30;59.90;;;;;;4973529;28;20502;-77
2023/12/07 09:28:39;;;;;;;26.17;10.48;;;-11.10;59.90;;;;;;4974169;28;20054;-77
2023/12/07 09:31:07;;;;;;;19.85;8.43;;;-11.00;59.90;;;;;;4976021;28;20063;-79
2023/12/07 09:33:34;;;;;;;18.73;9.32;;;-10.80;59.60;;;;;;4975409;28;20054;-77
2023/12/07 09:36:07;;;;;;;23.08;8.20;;;-10.80;59.40;;;;;;4974054;28;20264;-78
2023/12/07 09:38:37;;;;;;;25.00;8.02;;;-10.80;59.30;;;;;;4970730;28;20055;-77
2023/12/07 09:41:05;;;;;;;23.52;9.85;;;-10.70;59.20;;;;;;4956328;28;20665;-78
2023/12/07 09:43:34;;;;;;;22.73;10.55;;;-10.60;59.20;;;;;;4986193;28;20051;-77
2023/12/07 09:46:02;;;;;;;24.52;9.15;;;-10.40;59.20;;;;;;4986945;28;20054;-80
2023/12/07 09:48:30;;;;;;;33.97;12.00;;;-10.20;58.80;;;;;;4955316;28;20043;-79
2023/12/07 09:51:01;;;;;;;30.15;11.20;;;-10.00;58.70;;;;;;4955128;28;20039;-78
2023/12/07 09:53:30;;;;;;;25.50;9.48;;;-9.70;58.20;;;;;;4982076;28;20049;-77
2023/12/07 09:55:58;;;;;;;20.02;9.65;;;-9.70;57.80;;;;;;5012282;28;20104;-78
2023/12/07 09:58:26;;;;;;;21.85;8.93;;;-9.90;57.70;;;;;;5013525;28;20464;-78
2023/12/07 10:00:55;;;;;;;20.65;7.95;;;-10.10;57.70;;;;;;5013412;28;20535;-78
2023/12/07 10:03:25;;;;;;;20.55;8.57;;;-10.10;58.10;;;;;;5009409;28;20042;-78
2023/12/07 10:05:58;;;;;;;21.85;8.60;;;-10.30;58.10;;;;;;4994365;28;20054;-77
2023/12/07 10:08:30;;;;;;;26.40;10.35;;;-10.40;58.10;;;;;;5011340;28;20558;-78
2023/12/07 10:11:06;;;;;;;22.63;9.70;;;-10.70;58.60;;;;;;5012504;28;20054;-80
2023/12/07 10:13:35;;;;;;;27.60;9.57;;;-10.70;59.10;;;;;;4993725;28;20050;-79
2023/12/07 10:16:16;;;;;;;26.33;9.00;;;-10.90;59.20;;;;;;4992614;28;20537;-79
2023/12/07 10:18:44;;;;;;;22.17;9.60;;;-10.80;59.40;;;;;;4993637;28;20054;-79
2023/12/07 10:21:12;;;;;;;21.23;8.65;;;-10.80;59.40;;;;;;4995614;28;20042;-81
2023/12/07 10:23:43;;;;;;;17.92;6.15;;;-10.90;59.20;;;;;;5005249;28;20104;-78
2023/12/07 10:26:15;;;;;;;19.48;8.57;;;-10.90;59.20;;;;;;4996673;28;20042;-79
2023/12/07 10:28:43;;;;;;;17.75;8.30;;;-10.80;59.40;;;;;;5003743;28;20050;-77
2023/12/07 10:31:12;;;;;;;24.27;8.98;;;-10.70;59.30;;;;;;5012626;28;20068;-80
2023/12/07 10:33:42;;;;;;;20.67;8.40;;;-10.60;59.20;;;;;;4995765;28;20124;-79
2023/12/07 10:36:13;;;;;;;18.40;8.52;;;-10.50;58.80;;;;;;4999559;28;20513;-79
2023/12/07 10:38:42;;;;;;;20.05;7.57;;;-10.50;58.60;;;;;;4999500;28;20065;-77
2023/12/07 10:41:14;;;;;;;28.35;8.98;;;-10.40;58.50;;;;;;4999953;28;20146;-77
2023/12/07 10:43:45;;;;;;;20.80;8.90;;;-10.30;58.30;;;;;;5005348;28;20053;-77
2023/12/07 10:46:23;;;;;;;21.30;9.25;;;-10.20;58.00;;;;;;5003433;28;20524;-78
2023/12/07 10:49:01;;;;;;;31.45;10.15;;;-10.20;57.60;;;;;;5001460;28;20050;-79
2023/12/07 10:51:40;;;;;;;17.95;8.15;;;-10.40;57.60;;;;;;5000234;28;20054;-79
2023/12/07 10:54:11;;;;;;;22.92;9.57;;;-10.50;57.90;;;;;;5029865;28;20049;-78
2023/12/07 10:56:44;;;;;;;28.65;9.57;;;-10.50;58.10;;;;;;5071943;28;20494;-78
2023/12/07 10:59:14;;;;;;;23.15;7.80;;;-10.60;58.20;;;;;;5048763;28;20129;-79
2023/12/07 11:01:44;;;;;;;24.55;10.48;;;-10.70;58.40;;;;;;5051260;28;20053;-79
2023/12/07 11:04:18;;;;;;;24.52;9.45;;;-10.70;58.40;;;;;;5051130;28;20551;-77
2023/12/07 11:06:50;;;;;;;29.30;11.18;;;-10.90;58.50;;;;;;5052974;28;20068;-78
2023/12/07 11:09:25;;;;;;;26.63;10.98;;;-10.90;58.80;;;;;;5053661;28;20055;-77
2023/12/07 11:11:58;;;;;;;22.92;8.65;;;-10.80;59.00;;;;;;5032562;28;20055;-79
2023/12/07 11:14:26;;;;;;;28.63;8.27;;;-10.90;59.00;;;;;;5071894;28;20451;-77
2023/12/07 11:16:58;;;;;;;23.10;10.07;;;-11.00;59.10;;;;;;5036482;28;20075;-78
2023/12/07 11:19:49;;;;;;;23.25;9.63;;;-10.90;59.20;;;;;;5062722;28;20049;-78
2023/12/07 11:22:26;;;;;;;19.73;9.30;;;-11.00;59.00;;;;;;5052443;28;20055;-78
2023/12/07 11:25:00;;;;;;;30.33;10.40;;;-11.10;59.10;;;;;;5069007;28;20055;-77
2023/12/07 11:27:31;;;;;;;19.25;7.00;;;-11.10;59.30;;;;;;5060878;28;20102;-76
2023/12/07 11:30:01;;;;;;;24.35;9.82;;;-11.20;59.30;;;;;;5071156;28;20484;-76
2023/12/07 11:32:34;;;;;;;23.55;10.00;;;-11.30;59.60;;;;;;5071759;28;20463;-76
2023/12/07 11:35:05;;;;;;;24.83;9.55;;;-11.30;60.00;;;;;;5046399;28;20052;-78
2023/12/07 11:38:09;;;;;;;24.03;9.17;;;-11.20;60.20;;;;;;5035578;28;20044;-77
2023/12/07 11:40:38;;;;;;;26.08;8.82;;;-11.10;60.70;;;;;;5060822;28;20293;-77
2023/12/07 11:43:06;;;;;;;26.20;10.35;;;-11.10;60.50;;;;;;5053207;28;20098;-77
2023/12/07 11:45:48;;;;;;;22.58;8.93;;;-11.10;60.10;;;;;;5070234;28;20052;-75
2023/12/07 11:48:20;;;;;;;18.00;8.83;;;-11.10;59.80;;;;;;5071081;28;20044;-76
2023/12/07 11:50:59;;;;;;;24.38;10.38;;;-11.20;59.80;;;;;;5070946;28;20051;-76
2023/12/07 11:53:29;;;;;;;24.42;8.48;;;-11.20;60.10;;;;;;5050173;28;20064;-78
2023/12/07 11:55:58;;;;;;;17.48;8.32;;;-11.30;59.90;;;;;;5051174;28;20139;-77
2023/12/07 11:58:27;;;;;;;20.92;8.98;;;-11.40;59.90;;;;;;5082477;28;20702;-78
2023/12/07 12:00:58;;;;;;;20.63;6.82;;;-11.60;59.80;;;;;;5051609;28;20045;-78
2023/12/07 12:03:28;;;;;;;16.35;7.55;;;-11.70;60.00;;;;;;5048543;28;20045;-78
2023/12/07 12:05:56;;;;;;;19.30;7.97;;;-11.90;59.80;;;;;;5040345;28;20049;-78
2023/12/07 12:08:24;;;;;;;16.13;8.13;;;-12.00;60.20;;;;;;5071011;28;20417;-78
2023/12/07 12:10:57;;;;;;;13.77;7.07;;;-12.10;60.50;;;;;;5061697;28;20053;-76
2023/12/07 12:13:27;;;;;;;;;;;-12.20;60.70;;;;;;5049648;28;20505;-78
2023/12/07 12:15:56;;;;;;;16.02;7.30;;;-12.20;61.10;;;;;;5049378;28;19931;-78
2023/12/07 12:18:26;;;;;;;22.73;9.45;;;-12.30;61.50;;;;;;5051092;28;20044;-78
2023/12/07 12:20:57;;;;;;;23.85;9.55;;;-12.30;61.70;;;;;;5069651;28;20528;-79
2023/12/07 12:23:25;;;;;;;17.42;8.68;;;-12.20;61.70;;;;;;5051904;28;20048;-79
2023/12/07 12:25:54;;;;;;;17.55;8.80;;;-12.30;61.90;;;;;;5050181;28;20040;-80
2023/12/07 12:28:23;;;;;;;20.25;8.25;;;-12.30;62.20;;;;;;5063127;28;20107;-80
2023/12/07 12:30:55;;;;;;;25.13;8.88;;;-12.40;62.30;;;;;;5032808;28;20087;-79
2023/12/07 12:33:23;;;;;;;20.40;8.23;;;-12.40;62.40;;;;;;5053197;28;20060;-78
2023/12/07 12:36:10;;;;;;;20.02;8.32;;;-12.40;62.60;;;;;;5052574;28;20045;-79
2023/12/07 12:38:40;;;;;;;23.73;9.02;;;-12.40;62.60;;;;;;5032443;28;20285;-77
2023/12/07 12:41:08;;;;;;;18.40;8.07;;;-12.40;62.50;;;;;;5058892;28;20427;-78
2023/12/07 12:43:36;;;;;;;23.73;8.10;;;-12.40;62.70;;;;;;5066383;28;20049;-78
2023/12/07 12:46:05;;;;;;;20.48;8.38;;;-12.50;62.80;;;;;;5066026;28;20596;-77
2023/12/07 12:48:33;;;;;;;18.63;8.35;;;-12.50;62.80;;;;;;5055694;28;20106;-79
2023/12/07 12:51:13;;;;;;;22.42;9.05;;;-12.50;62.90;;;;;;5049906;28;20587;-79